Ana Sayfa
METAR-TAF:

METAR-TAF

Havaalanları :

Kansas City, Missouri, Amerika Birleşik Devletleri

Enlem: 39-17-50N, Boylam: 094-43-50W, yükseklik: 312 m

Güncel hava durumu gözlemi

Rapor saat 05:53 UTC de 23 dakika önce yapıldı.
Rüzgar kuzeybatıdan 4 kt
Sıcaklık 18°C
Nem 94%
Basınç 1007 hPa
Görüş mesafesi: 16.1 km
Açık gökyüzü

METAR: KMCI 270553Z 31004KT 10SM CLR 18/17 A2975 RMK AO2 SLP065 OCNL LTGICCC E 60000 T01830167 10256 20183 402670156 53017

Saat: 01:16 (06:16 UTC)

Tahmin

Rapor saat 05:25 UTC de 51 dakika önce yapıldı.
Ayın 27'si saat 06 UTC'den ayın 28'si saat 06 UTC'ye kadar geçerli Tahmin
Rüzgar batı/kuzeybatıdan 8 kt
Görüş mesafesi: 10 km
25000 ft yükseklikte az bulutlu

TAF: KMCI 270525Z 2706/2806 29008KT P6SM FEW250

4.000'den fazla havaalanı için hava durumu gözlemleri ve tahminleri (METAR ve TAF raporları).

Kullanılabilir istasyonlar harita üzerinde sarı ve kırmızı noktalarla gösterilir.

İstasyonun adını görmek için fareyi noktanın üzerinde gezdirin.

Sonrasında hava gözlem ve tahminlerini görmek için tıklayın.

Haritayı değiştirmek için: yaklaştırmak için siyah artı işaretli yeşil düğmeye ve uzaklaştırmak için de eksi işaretli düğmeye hızla tıklayın; bitişik haritalar için yeşil okları kullanın.


METAR-TAF: